Terminal Aerodrome Forecast
Issued by NWS Sioux Falls, SD

Home | Current Version | Previous Version | Graphics & Text | Print | Product List | Glossary On
Versions: 1 2 3 4 5 6 7 8 9 10 11 12 13 14
000
FTUS43 KFSD 272320
TAFHON
TAF
KHON 272320Z 2800/2824 16015G23KT P6SM SCT040
      TEMPO 2805/2808 4SM TSRA OVC035CB
     FM281000 20010KT P6SM SCT100
     FM281300 29015G22KT P6SM SCT022=

USA.gov is the U.S. government's official web portal to all federal, state and local government web resources and services.